Poughkeepsie, NY (12601)

8:09 AM EDT on September 29, 2016 (GMT -0400)
Arlington | | Change Station

Elev 220 ft 41.71 °N, 73.90 °W | Updated 8 minutes ago

Overcast
Overcast
56.8 °F
Feels Like 56.8 °F
N
0.0
Wind Variable Wind from NE
Gusts 2.0 mph

Today
High -- | Low -- °F
--% Chance of Precip.
Yesterday
High -- | Low -- °F
Precip. -- in
Pressure 30.36 in
Visibility 10.0 miles
Clouds Overcast 2600 ft
Dew Point 50 °F
Humidity 77%
Rainfall 0.00 in
Snow Depth Not available.
6:50 AM 6:39 PM
Waning Crescent, 2% visible
METAR KPOU 291153Z 04006KT 10SM OVC026 14/08 A3036 RMK AO2 SLP279 T01390083 10144 20133 51017
Pressure 30.36 in
Visibility 10.0 miles
Clouds Overcast 2600 ft
Dew Point 50 °F
Humidity 77%
Rainfall 0.00 in
Snow Depth Not available.
6:50 AM 6:39 PM
Waning Crescent, 2% visible
METAR KPOU 291153Z 04006KT 10SM OVC026 14/08 A3036 RMK AO2 SLP279 T01390083 10144 20133 51017

10-Day Weather Forecast

Almanac

Astronomy

Sep. 29, 2016 Rise Set
Actual Time
Civil Twilight
Nautical Twilight
Astronomical Twilight
Moon
Length of Visible Light
Length of Day
Tomorrow will be .
, % of the Moon is Illuminated

Today's Extremes

State Highs State Lows

Community

WunderPhotos

Upload Photos

1,942,466 photos uploaded!

WunderBlog® & News

Nearby

Air Quality

  Air Quality AQ Index Pollutant
Not available.

Snow Depth

Station Depth Elevation

Earthquake Activity

City Distance Mag. Time & Date
Minimum magnitude displayed is 2.5.

Coastal Water Temperatures

Place Temperature

Stations

Nearby Weather Stations

Station Location Temp. Windchill Dew Point Humidity Wind Precip. Elev Updated Type
                   

Watches & Warnings

There are currently no watches in effect.